Time;durP1;ratioP1;P1;durP2;ratioP2;P2;SDS_P1;SDS_P2;PMS_P1;PMS_P2;Temp;Humidity;BMP_temperature;BMP_pressure;BME280_temperature;BME280_humidity;BME280_pressure;Samples;Min_cycle;Max_cycle;Signal;HPM_P1;HPM_P2
2021/01/15 00:00:06;;;;;;;15.13;10.73;;;4.10;95.00;;;;;;2088131;28;20028;-76
2021/01/15 00:01:08;;;;;;;12.88;10.55;;;4.10;95.10;;;;;;2087859;28;20674;-76
2021/01/15 00:02:08;;;;;;;12.32;10.63;;;4.10;95.00;;;;;;2092662;28;20437;-75
2021/01/15 00:03:09;;;;;;;13.13;10.60;;;4.10;94.90;;;;;;2096121;28;20070;-76
2021/01/15 00:04:10;;;;;;;13.27;10.40;;;4.10;94.90;;;;;;2088014;28;20610;-75
2021/01/15 00:05:11;;;;;;;11.90;10.00;;;4.10;95.00;;;;;;2088427;28;20029;-75
2021/01/15 00:06:18;;;;;;;11.88;10.30;;;4.10;94.80;;;;;;2095400;28;20032;-75
2021/01/15 00:07:19;;;;;;;13.82;10.18;;;4.10;94.60;;;;;;2094872;28;20032;-77
2021/01/15 00:08:20;;;;;;;12.68;10.05;;;4.10;94.80;;;;;;2083787;28;20018;-76
2021/01/15 00:09:20;;;;;;;11.55;9.55;;;4.10;94.70;;;;;;2094826;28;20387;-77
2021/01/15 00:10:21;;;;;;;11.80;9.82;;;4.10;94.60;;;;;;2087617;28;20440;-76
2021/01/15 00:11:23;;;;;;;15.52;9.52;;;4.10;94.60;;;;;;2087618;28;20025;-75
2021/01/15 00:12:24;;;;;;;14.27;10.75;;;4.10;94.50;;;;;;2087756;28;20063;-76
2021/01/15 00:13:24;;;;;;;11.45;9.88;;;4.10;94.40;;;;;;2086841;28;20462;-77
2021/01/15 00:14:25;;;;;;;12.80;9.35;;;4.10;94.30;;;;;;2086836;28;20056;-76
2021/01/15 00:15:26;;;;;;;11.55;9.48;;;4.10;94.20;;;;;;2086745;28;20458;-76
2021/01/15 00:16:33;;;;;;;12.10;9.80;;;4.10;94.00;;;;;;2086735;28;20130;-76
2021/01/15 00:17:35;;;;;;;12.35;9.23;;;4.10;93.90;;;;;;2086310;28;20017;-76
2021/01/15 00:18:35;;;;;;;12.25;9.73;;;4.10;94.10;;;;;;2086759;28;20469;-77
2021/01/15 00:19:36;;;;;;;10.85;9.55;;;4.10;94.10;;;;;;2086713;28;20105;-76
2021/01/15 00:20:36;;;;;;;12.10;10.13;;;4.10;94.10;;;;;;2087101;28;20564;-76
2021/01/15 00:21:48;;;;;;;11.55;9.55;;;4.10;94.10;;;;;;2087270;28;20021;-76
2021/01/15 00:22:48;;;;;;;11.07;9.15;;;4.10;94.10;;;;;;2087736;28;20027;-76
2021/01/15 00:23:56;;;;;;;10.52;9.43;;;4.00;93.90;;;;;;2099106;28;20028;-76
2021/01/15 00:24:57;;;;;;;11.10;9.05;;;4.00;93.90;;;;;;2088078;28;20500;-77
2021/01/15 00:25:57;;;;;;;10.13;8.00;;;4.00;93.90;;;;;;2093097;28;20029;-75
2021/01/15 00:26:58;;;;;;;11.43;8.70;;;4.00;93.90;;;;;;2093978;28;20040;-75
2021/01/15 00:27:58;;;;;;;10.95;9.20;;;4.00;93.80;;;;;;2091631;28;20053;-76
2021/01/15 00:28:59;;;;;;;10.93;9.43;;;4.00;93.80;;;;;;2094709;28;20460;-76
2021/01/15 00:30:00;;;;;;;10.25;8.80;;;4.00;93.60;;;;;;2088229;28;20029;-76
2021/01/15 00:31:00;;;;;;;10.13;8.30;;;4.00;93.50;;;;;;2086769;28;20017;-76
2021/01/15 00:32:01;;;;;;;10.43;8.63;;;4.00;93.60;;;;;;2086622;28;20940;-76
2021/01/15 00:33:02;;;;;;;9.60;8.50;;;4.00;93.60;;;;;;2086787;28;20052;-75
2021/01/15 00:34:04;;;;;;;11.07;8.80;;;4.00;93.50;;;;;;2078417;28;20025;-75
2021/01/15 00:35:06;;;;;;;12.30;9.38;;;4.00;93.50;;;;;;2087067;28;20053;-74
2021/01/15 00:36:08;;;;;;;11.25;8.85;;;4.10;93.60;;;;;;2087013;28;20037;-75
2021/01/15 00:37:10;;;;;;;11.38;8.73;;;4.00;93.50;;;;;;2087105;28;20103;-76
2021/01/15 00:38:10;;;;;;;12.25;8.20;;;4.00;93.30;;;;;;2085985;28;20143;-75
2021/01/15 00:39:15;;;;;;;11.25;8.80;;;4.00;93.20;;;;;;2087250;28;20526;-75
2021/01/15 00:40:17;;;;;;;10.10;8.32;;;4.00;93.10;;;;;;2087249;28;20025;-75
2021/01/15 00:41:17;;;;;;;11.20;8.20;;;4.00;93.10;;;;;;2090453;28;20487;-76
2021/01/15 00:42:18;;;;;;;10.55;8.38;;;4.00;93.20;;;;;;2094473;28;20039;-75
2021/01/15 00:43:19;;;;;;;11.02;9.10;;;4.00;93.20;;;;;;2088676;28;20086;-75
2021/01/15 00:44:20;;;;;;;11.75;9.15;;;4.00;93.20;;;;;;2092806;28;20079;-75
2021/01/15 00:45:20;;;;;;;10.32;8.82;;;4.00;93.10;;;;;;2096874;28;20356;-75
2021/01/15 00:46:33;;;;;;;11.52;9.00;;;4.00;93.10;;;;;;2090695;28;20036;-76
2021/01/15 00:47:33;;;;;;;12.70;8.43;;;4.00;93.10;;;;;;2092588;28;20194;-74
2021/01/15 00:48:35;;;;;;;11.32;8.43;;;3.90;93.00;;;;;;2088252;28;20067;-76
2021/01/15 00:49:35;;;;;;;13.77;8.55;;;4.00;93.10;;;;;;2087645;28;20017;-75
2021/01/15 00:50:36;;;;;;;9.65;8.45;;;4.00;93.10;;;;;;2088281;28;20049;-76
2021/01/15 00:51:37;;;;;;;10.73;8.90;;;3.90;93.10;;;;;;2088558;28;20056;-76
2021/01/15 00:52:38;;;;;;;12.77;9.02;;;3.90;93.10;;;;;;2087729;28;20507;-76
2021/01/15 00:53:39;;;;;;;11.60;8.63;;;4.00;93.20;;;;;;2090530;28;20067;-76
2021/01/15 00:54:39;;;;;;;14.55;9.27;;;3.90;93.10;;;;;;2096895;28;20119;-77
2021/01/15 00:55:40;;;;;;;10.40;8.98;;;3.90;93.20;;;;;;2096553;28;20015;-76
2021/01/15 00:56:41;;;;;;;11.43;9.18;;;3.90;93.30;;;;;;2096225;28;20028;-76
2021/01/15 00:57:41;;;;;;;10.10;8.50;;;3.90;93.40;;;;;;2095751;28;20129;-75
2021/01/15 00:58:42;;;;;;;13.23;9.45;;;3.90;93.30;;;;;;2095218;28;20459;-75
2021/01/15 00:59:43;;;;;;;13.25;10.13;;;3.90;93.20;;;;;;2093638;28;20107;-76
2021/01/15 01:00:43;;;;;;;9.95;8.95;;;3.90;93.30;;;;;;2087798;28;20025;-77
2021/01/15 01:01:44;;;;;;;9.73;8.73;;;3.90;93.30;;;;;;2088261;28;20017;-76
2021/01/15 01:02:44;;;;;;;11.40;9.27;;;3.90;93.20;;;;;;2088514;28;20025;-76
2021/01/15 01:03:47;;;;;;;11.50;8.82;;;3.90;93.10;;;;;;2088064;28;20021;-76
2021/01/15 01:04:48;;;;;;;10.60;9.10;;;3.90;93.20;;;;;;2088011;28;20075;-77
2021/01/15 01:05:48;;;;;;;9.88;8.68;;;3.90;93.20;;;;;;2088649;28;20472;-76
2021/01/15 01:06:49;;;;;;;10.95;9.43;;;3.90;93.30;;;;;;2088132;28;20021;-76
2021/01/15 01:07:50;;;;;;;11.55;9.40;;;3.90;93.30;;;;;;2088504;28;20367;-75
2021/01/15 01:08:51;;;;;;;11.35;8.98;;;3.90;93.30;;;;;;2088167;28;20036;-76
2021/01/15 01:09:51;;;;;;;12.35;8.80;;;3.90;93.20;;;;;;2088183;28;20021;-76
2021/01/15 01:10:52;;;;;;;14.13;10.23;;;3.90;93.30;;;;;;2088678;28;20040;-76
2021/01/15 01:11:52;;;;;;;10.73;8.80;;;3.90;93.30;;;;;;2088739;28;20032;-77
2021/01/15 01:12:53;;;;;;;12.15;9.40;;;3.90;93.30;;;;;;2088265;28;20029;-75
2021/01/15 01:13:55;;;;;;;12.00;9.13;;;3.90;93.30;;;;;;2088364;28;20082;-77
2021/01/15 01:14:55;;;;;;;11.45;9.90;;;3.90;93.50;;;;;;2087598;28;20021;-75
2021/01/15 01:15:56;;;;;;;13.43;10.02;;;3.90;93.40;;;;;;2087802;28;20373;-75
2021/01/15 01:16:57;;;;;;;12.57;10.18;;;3.90;93.40;;;;;;2087537;28;20032;-76
2021/01/15 01:17:57;;;;;;;11.70;9.73;;;3.90;93.40;;;;;;2087671;28;20491;-76
2021/01/15 01:18:58;;;;;;;14.48;9.82;;;3.90;93.50;;;;;;2088037;28;20028;-75
2021/01/15 01:19:59;;;;;;;13.30;9.43;;;3.90;93.40;;;;;;2088353;28;20033;-76
2021/01/15 01:21:00;;;;;;;11.93;9.98;;;3.90;93.50;;;;;;2088824;28;20064;-76
2021/01/15 01:22:00;;;;;;;11.07;9.05;;;4.00;93.60;;;;;;2088887;28;20103;-76
2021/01/15 01:23:01;;;;;;;12.32;9.82;;;3.90;93.50;;;;;;2088427;28;20029;-76
2021/01/15 01:24:02;;;;;;;11.18;9.98;;;3.90;93.50;;;;;;2103949;28;20031;-75
2021/01/15 01:25:03;;;;;;;13.50;10.20;;;3.90;93.50;;;;;;2091783;28;20029;-76
2021/01/15 01:26:04;;;;;;;14.95;10.77;;;4.00;93.80;;;;;;2088965;28;20056;-76
2021/01/15 01:27:05;;;;;;;11.77;9.80;;;4.00;93.40;;;;;;2095235;28;20541;-76
2021/01/15 01:28:05;;;;;;;11.30;9.30;;;3.90;93.40;;;;;;2090279;28;20083;-75
2021/01/15 01:29:06;;;;;;;13.18;9.82;;;3.90;93.40;;;;;;2096458;28;20478;-76
2021/01/15 01:30:07;;;;;;;15.68;9.57;;;3.90;93.50;;;;;;2096147;28;21054;-76
2021/01/15 01:31:17;;;;;;;13.88;10.70;;;3.90;93.60;;;;;;2092849;28;20029;-76
2021/01/15 01:32:18;;;;;;;;;;;3.90;93.50;;;;;;2088352;28;20092;-76
2021/01/15 01:33:19;;;;;;;12.73;9.60;;;3.80;93.30;;;;;;2087939;28;19966;-75
2021/01/15 01:34:19;;;;;;;11.82;10.13;;;3.80;93.50;;;;;;2088095;28;20511;-76
2021/01/15 01:35:20;;;;;;;14.70;10.52;;;3.90;93.70;;;;;;2088737;28;20409;-75
2021/01/15 01:36:20;;;;;;;12.43;9.73;;;3.90;93.70;;;;;;2087232;28;20037;-76
2021/01/15 01:37:21;;;;;;;12.25;10.55;;;3.90;93.70;;;;;;2087556;28;20048;-75
2021/01/15 01:38:21;;;;;;;13.55;9.95;;;3.90;93.70;;;;;;2087038;28;20113;-75
2021/01/15 01:39:22;;;;;;;14.77;10.90;;;3.90;93.70;;;;;;2087980;28;20492;-76
2021/01/15 01:40:23;;;;;;;12.90;10.15;;;3.90;93.50;;;;;;2088433;28;20468;-76
2021/01/15 01:41:23;;;;;;;12.60;10.13;;;3.90;93.50;;;;;;2088582;28;20372;-75
2021/01/15 01:42:24;;;;;;;11.55;10.35;;;3.90;93.50;;;;;;2088210;28;20025;-76
2021/01/15 01:43:25;;;;;;;11.93;10.23;;;3.90;93.50;;;;;;2088088;28;20033;-76
2021/01/15 01:44:26;;;;;;;15.63;10.43;;;3.90;93.60;;;;;;2087697;28;20028;-75
2021/01/15 01:45:27;;;;;;;12.27;10.85;;;3.90;93.70;;;;;;2087855;28;20063;-75
2021/01/15 01:46:27;;;;;;;16.98;10.65;;;3.80;93.60;;;;;;2087509;28;20025;-77
2021/01/15 01:47:28;;;;;;;13.65;10.38;;;3.80;93.60;;;;;;2088444;28;20040;-77
2021/01/15 01:48:29;;;;;;;14.38;11.43;;;3.80;93.60;;;;;;2087815;28;20039;-76
2021/01/15 01:49:31;;;;;;;13.27;10.18;;;3.90;93.70;;;;;;2088335;28;20025;-76
2021/01/15 01:50:33;;;;;;;16.95;9.90;;;3.80;93.60;;;;;;2088127;28;20021;-76
2021/01/15 01:51:34;;;;;;;15.45;10.43;;;3.80;93.70;;;;;;2088891;28;20110;-77
2021/01/15 01:52:36;;;;;;;12.38;10.18;;;3.90;93.70;;;;;;2092606;28;20078;-76
2021/01/15 01:53:37;;;;;;;15.50;11.77;;;3.90;93.60;;;;;;2095081;28;20024;-76
2021/01/15 01:54:39;;;;;;;11.15;9.98;;;3.80;93.60;;;;;;2088306;28;20104;-77
2021/01/15 01:55:41;;;;;;;13.68;10.90;;;3.80;93.70;;;;;;2088396;28;20730;-75
2021/01/15 01:56:43;;;;;;;13.85;10.95;;;3.80;93.70;;;;;;2088185;28;20644;-76
2021/01/15 01:57:44;;;;;;;13.70;10.95;;;3.80;93.70;;;;;;2088202;28;20426;-74
2021/01/15 01:58:45;;;;;;;12.38;10.63;;;3.80;93.80;;;;;;2087163;28;20488;-75
2021/01/15 01:59:46;;;;;;;14.07;10.60;;;3.80;93.70;;;;;;2087272;28;20189;-76
2021/01/15 02:00:52;;;;;;;13.82;10.70;;;3.90;93.80;;;;;;2087559;28;20025;-76
2021/01/15 02:01:53;;;;;;;13.65;11.40;;;3.80;93.70;;;;;;2088114;28;20492;-77
2021/01/15 02:02:54;;;;;;;16.75;10.90;;;3.80;93.70;;;;;;2087910;28;20021;-76
2021/01/15 02:04:02;;;;;;;16.00;11.00;;;3.80;93.70;;;;;;2088110;28;20017;-76
2021/01/15 02:05:05;;;;;;;12.77;10.57;;;3.80;93.80;;;;;;2088556;28;20025;-75
2021/01/15 02:06:06;;;;;;;16.40;11.02;;;3.80;93.90;;;;;;2088125;28;20044;-77
2021/01/15 02:07:06;;;;;;;14.65;11.18;;;3.80;93.90;;;;;;2087533;28;20103;-77
2021/01/15 02:08:07;;;;;;;14.13;11.20;;;3.80;94.00;;;;;;2088002;28;20364;-76
2021/01/15 02:09:08;;;;;;;14.25;10.90;;;3.80;93.90;;;;;;2088462;28;20025;-76
2021/01/15 02:10:17;;;;;;;14.65;11.20;;;3.80;94.00;;;;;;2087803;28;20025;-77
2021/01/15 02:11:50;;;;;;;12.98;10.98;;;3.80;94.10;;;;;;2088231;28;20036;-76
2021/01/15 02:12:59;;;;;;;13.20;10.93;;;3.80;94.10;;;;;;2087327;28;20037;-76
2021/01/15 02:14:18;;;;;;;13.02;11.63;;;3.70;94.20;;;;;;2088004;28;20546;-76
2021/01/15 02:15:24;;;;;;;15.75;12.70;;;3.70;94.30;;;;;;2088342;28;20055;-76
2021/01/15 02:16:28;;;;;;;12.45;11.10;;;3.70;94.50;;;;;;2087523;28;20483;-76
2021/01/15 02:17:34;;;;;;;14.98;11.75;;;3.70;94.70;;;;;;2087742;28;20547;-76
2021/01/15 02:18:38;;;;;;;15.13;12.07;;;3.80;94.90;;;;;;2087042;28;20029;-77
2021/01/15 02:20:08;;;;;;;17.60;13.57;;;3.70;95.00;;;;;;2088428;28;20021;-76
2021/01/15 02:21:30;;;;;;;16.52;12.50;;;3.70;95.40;;;;;;2088624;28;20059;-76
2021/01/15 02:22:48;;;;;;;18.75;13.05;;;3.70;95.40;;;;;;2087808;28;20025;-76
2021/01/15 02:23:50;;;;;;;16.20;12.60;;;3.70;95.70;;;;;;2092933;28;20066;-77
2021/01/15 02:24:59;;;;;;;17.80;13.55;;;3.70;95.90;;;;;;2091826;28;20392;-76
2021/01/15 02:26:06;;;;;;;19.38;12.73;;;3.70;96.10;;;;;;2093994;28;20032;-76
2021/01/15 02:27:44;;;;;;;15.30;12.82;;;3.70;96.10;;;;;;2095218;28;20029;-76
2021/01/15 02:29:03;;;;;;;22.08;15.10;;;3.70;96.40;;;;;;2095928;28;20017;-76
2021/01/15 02:30:28;;;;;;;17.50;14.30;;;3.80;96.40;;;;;;2095153;28;20029;-76
2021/01/15 02:31:28;;;;;;;15.52;13.70;;;3.70;96.90;;;;;;2095679;28;20494;-76
2021/01/15 02:32:42;;;;;;;20.60;14.68;;;3.70;96.70;;;;;;2096395;28;20032;-76
2021/01/15 02:34:01;;;;;;;18.08;13.82;;;3.70;96.90;;;;;;2096117;28;20024;-76
2021/01/15 02:35:17;;;;;;;19.35;14.18;;;3.70;97.40;;;;;;2088323;28;20032;-77
2021/01/15 02:36:32;;;;;;;18.58;14.65;;;3.70;97.10;;;;;;2088267;28;20025;-75
2021/01/15 02:37:51;;;;;;;20.17;15.40;;;3.80;97.40;;;;;;2087888;28;20103;-76
2021/01/15 02:38:59;;;;;;;17.80;15.23;;;3.70;97.60;;;;;;2087340;28;20025;-75
2021/01/15 02:40:16;;;;;;;21.45;15.95;;;3.70;97.60;;;;;;2087924;28;20021;-76
2021/01/15 02:41:27;;;;;;;19.95;15.48;;;3.70;97.80;;;;;;2088472;28;20032;-75
2021/01/15 02:42:31;;;;;;;19.55;15.00;;;3.70;97.80;;;;;;2087895;28;20036;-75
2021/01/15 02:43:34;;;;;;;18.23;14.38;;;3.70;97.80;;;;;;2088311;28;20586;-75
2021/01/15 02:44:38;;;;;;;19.35;15.07;;;3.80;97.80;;;;;;2095213;28;20033;-75
2021/01/15 02:45:41;;;;;;;18.63;15.73;;;3.70;97.90;;;;;;2094104;28;20029;-77
2021/01/15 02:46:56;;;;;;;18.17;16.25;;;3.80;98.00;;;;;;2088323;28;20045;-75
2021/01/15 02:48:03;;;;;;;19.23;15.65;;;3.70;98.20;;;;;;2087960;28;20387;-76
2021/01/15 02:49:05;;;;;;;20.60;15.38;;;3.70;98.20;;;;;;2088132;28;20441;-75
2021/01/15 02:50:10;;;;;;;22.92;16.58;;;3.80;98.20;;;;;;2088659;28;20028;-76
2021/01/15 02:51:13;;;;;;;19.25;16.10;;;3.70;98.30;;;;;;2088633;28;20439;-76
2021/01/15 02:52:15;;;;;;;23.00;16.23;;;3.70;98.30;;;;;;2088182;28;20460;-75
2021/01/15 02:53:15;;;;;;;20.88;16.10;;;3.70;98.30;;;;;;2088668;28;20025;-76
2021/01/15 02:54:16;;;;;;;20.60;15.88;;;3.80;98.40;;;;;;2087734;28;20052;-76
2021/01/15 02:55:17;;;;;;;20.85;16.90;;;3.80;98.40;;;;;;2088287;28;20092;-75
2021/01/15 02:56:18;;;;;;;21.27;17.15;;;3.80;98.50;;;;;;2087797;28;20029;-75
2021/01/15 02:57:19;;;;;;;19.83;16.55;;;3.80;98.50;;;;;;2088062;28;20033;-76
2021/01/15 02:58:19;;;;;;;22.65;16.65;;;3.80;98.50;;;;;;2088421;28;20739;-77
2021/01/15 02:59:20;;;;;;;20.20;16.25;;;3.80;98.60;;;;;;2088536;28;20029;-76
2021/01/15 03:00:22;;;;;;;19.65;15.60;;;3.80;98.60;;;;;;2090353;28;20100;-75
2021/01/15 03:01:23;;;;;;;20.63;16.85;;;3.70;98.60;;;;;;2097058;28;20107;-77
2021/01/15 03:02:36;;;;;;;18.35;16.42;;;3.80;98.60;;;;;;2090165;28;20029;-76
2021/01/15 03:03:51;;;;;;;18.98;16.75;;;3.80;98.70;;;;;;2089090;28;20059;-75
2021/01/15 03:05:00;;;;;;;22.75;16.13;;;3.80;98.90;;;;;;2089657;28;20029;-75
2021/01/15 03:06:12;;;;;;;19.20;15.35;;;3.80;98.80;;;;;;2097119;28;20469;-75
2021/01/15 03:07:14;;;;;;;21.40;15.90;;;3.70;98.90;;;;;;2090445;28;20487;-76
2021/01/15 03:08:17;;;;;;;18.15;15.73;;;3.80;98.80;;;;;;2090461;28;20032;-76
2021/01/15 03:09:19;;;;;;;22.23;17.02;;;3.80;98.80;;;;;;2097332;28;20016;-75
2021/01/15 03:10:23;;;;;;;21.33;15.80;;;3.80;98.80;;;;;;2097206;28;20052;-74
2021/01/15 03:11:26;;;;;;;26.20;16.85;;;3.80;98.90;;;;;;2095596;28;20021;-74
2021/01/15 03:12:27;;;;;;;22.15;17.58;;;3.80;98.90;;;;;;2088557;28;20054;-76
2021/01/15 03:13:29;;;;;;;23.10;18.00;;;3.70;99.00;;;;;;2093721;28;20035;-75
2021/01/15 03:14:31;;;;;;;18.75;15.75;;;3.70;99.00;;;;;;2097805;28;20086;-75
2021/01/15 03:15:36;;;;;;;26.30;17.67;;;3.70;99.00;;;;;;2097350;28;20045;-75
2021/01/15 03:16:39;;;;;;;23.92;17.95;;;3.80;99.10;;;;;;2092234;28;20029;-75
2021/01/15 03:17:45;;;;;;;25.40;18.23;;;3.70;99.10;;;;;;2089526;28;20379;-75
2021/01/15 03:18:47;;;;;;;22.63;17.83;;;3.70;99.20;;;;;;2088579;28;20064;-76
2021/01/15 03:19:49;;;;;;;21.67;18.17;;;3.70;99.20;;;;;;2094822;28;20034;-76
2021/01/15 03:20:50;;;;;;;20.23;17.08;;;3.70;99.30;;;;;;2098031;28;20020;-76
2021/01/15 03:21:52;;;;;;;22.63;18.63;;;3.70;99.20;;;;;;2098167;28;20387;-76
2021/01/15 03:22:53;;;;;;;20.85;17.33;;;3.70;99.20;;;;;;2098003;28;20115;-75
2021/01/15 03:23:55;;;;;;;22.73;17.83;;;3.70;99.30;;;;;;2097590;28;20021;-75
2021/01/15 03:24:58;;;;;;;25.55;18.73;;;3.70;99.20;;;;;;2092115;28;20488;-75
2021/01/15 03:25:59;;;;;;;20.83;17.50;;;3.70;99.30;;;;;;2090221;28;20537;-75
2021/01/15 03:27:00;;;;;;;22.48;18.45;;;3.70;99.30;;;;;;2095289;28;20044;-75
2021/01/15 03:28:01;;;;;;;26.20;18.98;;;3.70;99.30;;;;;;2092924;28;20112;-77
2021/01/15 03:29:03;;;;;;;21.95;18.30;;;3.70;99.40;;;;;;2096196;28;20400;-75
2021/01/15 03:30:04;;;;;;;21.80;18.02;;;3.70;99.40;;;;;;2097368;28;20572;-75
2021/01/15 03:31:05;;;;;;;22.38;18.63;;;3.70;99.40;;;;;;2094122;28;20778;-75
2021/01/15 03:32:05;;;;;;;21.77;17.70;;;3.70;99.40;;;;;;2089371;28;20025;-75
2021/01/15 03:33:06;;;;;;;22.38;17.70;;;3.70;99.40;;;;;;2089640;28;20112;-76
2021/01/15 03:34:07;;;;;;;20.77;17.83;;;3.70;99.40;;;;;;2091449;28;20017;-76
2021/01/15 03:35:09;;;;;;;21.02;17.92;;;3.70;99.50;;;;;;2097707;28;20017;-76
2021/01/15 03:36:10;;;;;;;22.42;17.92;;;3.70;99.50;;;;;;2097475;28;20379;-75
2021/01/15 03:37:10;;;;;;;26.38;19.38;;;3.70;99.50;;;;;;2097236;28;20425;-75
2021/01/15 03:38:12;;;;;;;22.35;18.08;;;3.70;99.50;;;;;;2089701;28;20025;-75
2021/01/15 03:39:13;;;;;;;26.60;19.00;;;3.70;99.50;;;;;;2089856;28;20029;-76
2021/01/15 03:40:14;;;;;;;23.10;19.15;;;3.70;99.40;;;;;;2080501;28;20116;-76
2021/01/15 03:41:14;;;;;;;23.13;18.75;;;3.70;99.40;;;;;;2088871;28;20361;-74
2021/01/15 03:42:15;;;;;;;23.40;18.90;;;3.70;99.40;;;;;;2090073;28;20067;-76
2021/01/15 03:43:17;;;;;;;21.02;18.48;;;3.60;99.40;;;;;;2097756;28;20086;-76
2021/01/15 03:44:18;;;;;;;24.42;18.95;;;3.60;99.50;;;;;;2092872;28;20040;-75
2021/01/15 03:45:19;;;;;;;22.92;18.35;;;3.60;99.50;;;;;;2095126;28;20519;-75
2021/01/15 03:46:19;;;;;;;24.05;19.00;;;3.60;99.60;;;;;;2097554;28;20032;-75
2021/01/15 03:47:20;;;;;;;26.67;19.02;;;3.60;99.60;;;;;;2094310;28;20052;-75
2021/01/15 03:48:21;;;;;;;22.35;18.65;;;3.60;99.70;;;;;;2089562;28;20100;-75
2021/01/15 03:49:22;;;;;;;22.80;18.70;;;3.60;99.70;;;;;;2097196;28;20349;-74
2021/01/15 03:50:23;;;;;;;25.15;20.17;;;3.60;99.70;;;;;;2096257;28;20094;-76
2021/01/15 03:51:23;;;;;;;25.52;19.05;;;3.60;99.80;;;;;;2090632;28;20171;-76
2021/01/15 03:52:24;;;;;;;23.02;19.85;;;3.60;99.90;;;;;;2092405;28;20029;-75
2021/01/15 03:53:24;;;;;;;25.58;20.10;;;3.60;99.90;;;;;;2089041;28;20115;-75
2021/01/15 03:54:25;;;;;;;25.45;18.50;;;3.50;99.90;;;;;;2096726;28;20055;-74
2021/01/15 03:55:25;;;;;;;22.70;19.90;;;3.60;99.90;;;;;;2097006;28;20023;-75
2021/01/15 03:56:26;;;;;;;25.08;20.15;;;3.60;99.90;;;;;;2097151;28;20073;-75
2021/01/15 03:57:26;;;;;;;24.33;20.13;;;3.60;99.90;;;;;;2095728;28;20032;-75
2021/01/15 03:58:27;;;;;;;24.75;20.23;;;3.60;99.90;;;;;;2095905;28;20131;-76
2021/01/15 03:59:28;;;;;;;23.88;20.23;;;3.60;99.90;;;;;;2091682;28;20024;-76
2021/01/15 04:00:28;;;;;;;24.52;20.50;;;3.60;99.90;;;;;;2088428;28;20492;-75
2021/01/15 04:01:29;;;;;;;24.95;19.70;;;3.60;99.90;;;;;;2094332;28;20028;-75
2021/01/15 04:02:30;;;;;;;24.35;19.17;;;3.60;99.90;;;;;;2087646;28;20515;-76
2021/01/15 04:03:31;;;;;;;23.58;19.98;;;3.60;99.90;;;;;;2087376;28;20104;-76
2021/01/15 04:04:31;;;;;;;25.13;21.10;;;3.60;99.90;;;;;;2087715;28;20096;-75
2021/01/15 04:05:32;;;;;;;28.85;20.35;;;3.60;99.90;;;;;;2090044;28;20032;-75
2021/01/15 04:06:33;;;;;;;26.50;21.63;;;3.60;99.90;;;;;;2094728;28;20028;-75
2021/01/15 04:07:34;;;;;;;22.25;19.27;;;3.60;99.90;;;;;;2090248;28;20016;-75
2021/01/15 04:08:34;;;;;;;25.45;20.38;;;3.60;99.90;;;;;;2091213;28;20530;-76
2021/01/15 04:09:35;;;;;;;24.73;20.20;;;3.60;99.90;;;;;;2086949;28;20067;-76
2021/01/15 04:10:35;;;;;;;26.75;20.25;;;3.60;99.90;;;;;;2087133;28;20028;-74
2021/01/15 04:11:36;;;;;;;26.85;20.02;;;3.70;99.90;;;;;;2087376;28;20029;-76
2021/01/15 04:12:38;;;;;;;23.08;19.40;;;3.60;99.90;;;;;;2087597;28;20100;-75
2021/01/15 04:13:38;;;;;;;25.15;20.42;;;3.60;99.90;;;;;;2087485;28;20052;-75
2021/01/15 04:14:40;;;;;;;25.05;19.92;;;3.60;99.90;;;;;;2087551;28;20032;-75
2021/01/15 04:15:40;;;;;;;26.42;20.67;;;3.60;99.90;;;;;;2087565;28;20083;-76
2021/01/15 04:16:41;;;;;;;23.08;19.50;;;3.60;99.90;;;;;;2087418;28;20431;-76
2021/01/15 04:17:43;;;;;;;25.10;20.42;;;3.70;99.90;;;;;;2086552;28;20028;-75
2021/01/15 04:18:43;;;;;;;24.30;21.17;;;3.60;99.90;;;;;;2086991;28;20020;-76
2021/01/15 04:19:44;;;;;;;22.75;20.00;;;3.60;99.90;;;;;;2089113;28;20047;-75
2021/01/15 04:20:45;;;;;;;23.05;19.08;;;3.60;99.90;;;;;;2089184;28;20097;-76
2021/01/15 04:21:45;;;;;;;25.80;20.30;;;3.60;99.90;;;;;;2089420;28;20096;-75
2021/01/15 04:22:48;;;;;;;23.83;19.55;;;3.60;99.90;;;;;;2089221;28;20445;-75
2021/01/15 04:23:48;;;;;;;25.70;20.33;;;3.60;99.90;;;;;;2095296;28;20020;-76
2021/01/15 04:24:49;;;;;;;25.60;20.10;;;3.60;99.90;;;;;;2091121;28;20036;-75
2021/01/15 04:25:49;;;;;;;24.80;21.10;;;3.60;99.90;;;;;;2093686;28;20102;-75
2021/01/15 04:26:54;;;;;;;24.08;20.77;;;3.50;99.90;;;;;;2093712;28;20025;-75
2021/01/15 04:27:55;;;;;;;27.17;20.10;;;3.50;99.90;;;;;;2092335;28;20533;-76
2021/01/15 04:28:55;;;;;;;27.27;20.55;;;3.50;99.90;;;;;;2094708;28;20051;-75
2021/01/15 04:29:56;;;;;;;26.20;20.52;;;3.50;99.90;;;;;;2095296;28;20546;-76
2021/01/15 04:30:56;;;;;;;22.45;20.02;;;3.50;99.90;;;;;;2094096;28;20051;-75
2021/01/15 04:31:57;;;;;;;24.27;20.52;;;3.50;99.90;;;;;;2089163;28;20039;-76
2021/01/15 04:32:58;;;;;;;23.25;20.00;;;3.50;99.90;;;;;;2087665;28;20071;-76
2021/01/15 04:33:58;;;;;;;23.67;21.15;;;3.50;99.90;;;;;;2095480;28;20526;-76
2021/01/15 04:35:00;;;;;;;24.35;20.75;;;3.50;99.90;;;;;;2094461;28;20036;-74
2021/01/15 04:36:01;;;;;;;24.70;21.00;;;3.50;99.90;;;;;;2094808;28;20387;-75
2021/01/15 04:37:01;;;;;;;23.23;20.30;;;3.50;99.90;;;;;;2096363;28;20028;-75
2021/01/15 04:38:02;;;;;;;24.15;21.05;;;3.50;99.90;;;;;;2096704;28;20029;-75
2021/01/15 04:39:04;;;;;;;25.60;20.73;;;3.50;99.90;;;;;;2095171;28;20103;-76
2021/01/15 04:40:05;;;;;;;23.48;20.85;;;3.60;99.90;;;;;;2096072;28;20036;-75
2021/01/15 04:41:06;;;;;;;23.23;20.73;;;3.60;99.90;;;;;;2091324;28;20029;-76
2021/01/15 04:42:08;;;;;;;24.35;21.02;;;3.60;99.90;;;;;;2096065;28;20356;-75
2021/01/15 04:43:15;;;;;;;22.77;19.80;;;3.60;99.90;;;;;;2088400;28;20723;-75
2021/01/15 04:44:16;;;;;;;23.65;21.02;;;3.60;99.90;;;;;;2088608;28;20471;-75
2021/01/15 04:45:17;;;;;;;28.55;22.23;;;3.60;99.90;;;;;;2088356;28;20033;-75
2021/01/15 04:46:21;;;;;;;26.20;20.75;;;3.60;99.90;;;;;;2088393;28;20025;-76
2021/01/15 04:47:24;;;;;;;24.35;19.08;;;3.60;99.90;;;;;;2091757;28;20139;-76
2021/01/15 04:48:27;;;;;;;25.15;19.70;;;3.60;99.90;;;;;;2096376;28;20024;-75
2021/01/15 04:49:30;;;;;;;27.80;22.20;;;3.60;99.90;;;;;;2096888;28;20043;-77
2021/01/15 04:50:31;;;;;;;25.98;21.58;;;3.60;99.90;;;;;;2093004;28;20388;-76
2021/01/15 04:51:35;;;;;;;24.92;21.05;;;3.60;99.90;;;;;;2088617;28;20017;-75
2021/01/15 04:52:45;;;;;;;26.10;21.40;;;3.60;99.90;;;;;;2088491;28;20150;-76
2021/01/15 04:53:53;;;;;;;;;;;3.60;99.90;;;;;;2087913;28;20041;-76
2021/01/15 04:54:57;;;;;;;23.27;19.35;;;3.50;99.90;;;;;;2087834;28;19919;-76
2021/01/15 04:55:59;;;;;;;25.63;20.85;;;3.50;99.90;;;;;;2088374;28;20032;-76
2021/01/15 04:57:10;;;;;;;25.65;20.02;;;3.50;99.90;;;;;;2087021;28;20032;-77
2021/01/15 04:58:12;;;;;;;25.98;21.20;;;3.50;99.90;;;;;;2087780;28;20024;-75
2021/01/15 04:59:13;;;;;;;25.80;20.73;;;3.50;99.90;;;;;;2087611;28;20091;-76
2021/01/15 05:00:18;;;;;;;27.40;20.65;;;3.50;99.90;;;;;;2087749;28;20029;-75
2021/01/15 05:01:20;;;;;;;24.60;21.13;;;3.50;99.90;;;;;;2088233;28;20021;-76
2021/01/15 05:02:21;;;;;;;24.42;19.95;;;3.50;99.90;;;;;;2088583;28;20055;-76
2021/01/15 05:03:23;;;;;;;27.10;20.90;;;3.50;99.90;;;;;;2088293;28;20037;-77
2021/01/15 05:04:25;;;;;;;25.27;21.33;;;3.50;99.90;;;;;;2088612;28;20055;-76
2021/01/15 05:05:27;;;;;;;26.98;22.52;;;3.50;99.90;;;;;;2092826;28;20483;-76
2021/01/15 05:06:31;;;;;;;25.38;20.52;;;3.50;99.90;;;;;;2096348;28;20032;-75
2021/01/15 05:07:32;;;;;;;26.20;21.40;;;3.50;99.90;;;;;;2090537;28;20079;-76
2021/01/15 05:08:36;;;;;;;26.05;21.50;;;3.50;99.90;;;;;;2092389;28;20561;-75
2021/01/15 05:09:44;;;;;;;24.42;20.65;;;3.50;99.90;;;;;;2088289;28;20017;-75
2021/01/15 05:10:46;;;;;;;27.30;20.27;;;3.50;99.90;;;;;;2087778;28;20025;-75
2021/01/15 05:11:47;;;;;;;25.13;21.17;;;3.50;99.90;;;;;;2087439;28;20013;-75
2021/01/15 05:12:52;;;;;;;26.05;21.10;;;3.40;99.90;;;;;;2087423;28;20539;-76
2021/01/15 05:13:54;;;;;;;26.05;21.50;;;3.40;99.90;;;;;;2087424;28;20017;-76
2021/01/15 05:14:54;;;;;;;26.92;22.50;;;3.40;99.90;;;;;;2087915;28;20033;-76
2021/01/15 05:15:55;;;;;;;29.02;22.77;;;3.40;99.90;;;;;;2087793;28;20059;-75
2021/01/15 05:17:01;;;;;;;25.55;21.75;;;3.40;99.90;;;;;;2087823;28;20048;-75
2021/01/15 05:18:04;;;;;;;28.25;22.02;;;3.40;99.90;;;;;;2087681;28;20025;-75
2021/01/15 05:19:06;;;;;;;25.80;20.73;;;3.40;99.90;;;;;;2088587;28;20028;-75
2021/01/15 05:20:08;;;;;;;28.48;22.90;;;3.40;99.90;;;;;;2088697;28;20021;-76
2021/01/15 05:21:09;;;;;;;27.33;22.67;;;3.40;99.90;;;;;;2088223;28;20025;-75
2021/01/15 05:22:13;;;;;;;27.45;23.17;;;3.40;99.90;;;;;;2088531;28;20397;-76
2021/01/15 05:23:15;;;;;;;30.27;24.58;;;3.40;99.90;;;;;;2091028;28;20100;-76
2021/01/15 05:24:16;;;;;;;28.40;23.65;;;3.40;99.90;;;;;;2103959;28;20031;-76